Time;durP1;ratioP1;P1;durP2;ratioP2;P2;SDS_P1;SDS_P2;PMS_P1;PMS_P2;Temp;Humidity;BMP_temperature;BMP_pressure;BME280_temperature;BME280_humidity;BME280_pressure;Samples;Min_cycle;Max_cycle;Signal;HPM_P1;HPM_P2
2021/11/22 00:00:40;;;;;;;200.88;92.60;;;;;;;;;;5027064;28;20029;-44
2021/11/22 00:03:06;;;;;;;189.20;92.70;;;;;;;;;;5027619;28;20161;-47
2021/11/22 00:05:35;;;;;;;243.65;106.70;;;;;;;;;;5028563;28;20029;-44
2021/11/22 00:08:01;;;;;;;247.60;106.72;;;;;;;;;;5031104;28;20021;-44
2021/11/22 00:10:27;;;;;;;261.50;116.55;;;;;;;;;;5029361;28;20025;-45
2021/11/22 00:12:53;;;;;;;253.90;112.35;;;;;;;;;;5030382;28;20075;-45
2021/11/22 00:15:20;;;;;;;295.45;119.93;;;;;;;;;;5029532;28;20815;-44
2021/11/22 00:17:47;;;;;;;228.35;100.95;;;;;;;;;;5028858;28;20541;-44
2021/11/22 00:20:15;;;;;;;178.98;85.15;;;;;;;;;;5026857;28;20033;-44
2021/11/22 00:22:43;;;;;;;179.05;86.80;;;;;;;;;;5028739;28;20025;-44
2021/11/22 00:25:10;;;;;;;212.93;94.97;;;;;;;;;;5028853;28;20059;-44
2021/11/22 00:27:36;;;;;;;209.50;97.40;;;;;;;;;;5028781;28;20125;-45
2021/11/22 00:30:04;;;;;;;159.80;87.60;;;;;;;;;;5028035;28;20024;-44
2021/11/22 00:32:36;;;;;;;135.23;78.35;;;;;;;;;;5027701;28;20037;-44
2021/11/22 00:35:02;;;;;;;;;;;;;;;;;;5028928;28;20033;-44
2021/11/22 00:37:32;;;;;;;177.80;92.32;;;;;;;;;;5029537;28;19913;-44
2021/11/22 00:40:00;;;;;;;165.48;89.93;;;;;;;;;;5028318;28;20140;-44
2021/11/22 00:42:26;;;;;;;147.98;84.45;;;;;;;;;;5029730;28;20028;-44
2021/11/22 00:44:52;;;;;;;151.43;80.95;;;;;;;;;;5027281;28;20174;-44
2021/11/22 00:47:18;;;;;;;147.52;83.30;;;;;;;;;;5029074;28;21004;-44
2021/11/22 00:49:45;;;;;;;127.60;69.43;;;;;;;;;;5028670;28;20025;-44
2021/11/22 00:52:11;;;;;;;130.68;71.43;;;;;;;;;;5027786;28;20111;-44
2021/11/22 00:54:37;;;;;;;139.88;77.43;;;;;;;;;;5026745;28;20086;-44
2021/11/22 00:57:03;;;;;;;134.75;70.80;;;;;;;;;;5026668;28;20420;-44
2021/11/22 00:59:32;;;;;;;131.07;69.78;;;;;;;;;;5027016;28;20029;-44
2021/11/22 01:01:58;;;;;;;125.38;66.95;;;;;;;;;;5028132;28;20820;-44
2021/11/22 01:04:25;;;;;;;112.20;61.35;;;;;;;;;;5027213;28;20029;-44
2021/11/22 01:06:51;;;;;;;101.93;57.47;;;;;;;;;;5024527;28;20017;-46
2021/11/22 01:09:17;;;;;;;128.57;64.70;;;;;;;;;;5022747;28;20025;-46
2021/11/22 01:11:43;;;;;;;129.38;67.13;;;;;;;;;;5022637;28;20021;-46
2021/11/22 01:14:10;;;;;;;119.22;64.07;;;;;;;;;;5023048;28;20017;-46
2021/11/22 01:16:36;;;;;;;103.07;56.80;;;;;;;;;;5022794;28;20108;-46
2021/11/22 01:19:06;;;;;;;104.75;56.65;;;;;;;;;;5022601;28;20034;-45
2021/11/22 01:21:32;;;;;;;103.88;57.28;;;;;;;;;;5022620;28;20347;-46
2021/11/22 01:24:03;;;;;;;115.38;62.00;;;;;;;;;;5023655;28;20037;-46
2021/11/22 01:26:32;;;;;;;114.15;61.60;;;;;;;;;;5023803;28;20556;-46
2021/11/22 01:28:58;;;;;;;111.80;62.45;;;;;;;;;;5022758;28;20044;-46
2021/11/22 01:31:24;;;;;;;102.20;55.83;;;;;;;;;;5022452;28;20072;-46
2021/11/22 01:33:51;;;;;;;104.03;54.40;;;;;;;;;;5022557;28;20046;-46
2021/11/22 01:36:17;;;;;;;93.18;54.00;;;;;;;;;;5022553;28;20594;-46
2021/11/22 01:38:43;;;;;;;97.45;54.33;;;;;;;;;;5023440;28;20029;-46
2021/11/22 01:41:09;;;;;;;92.43;53.75;;;;;;;;;;5022685;28;20774;-45
2021/11/22 01:43:35;;;;;;;90.80;53.00;;;;;;;;;;5022333;28;20432;-46
2021/11/22 01:46:01;;;;;;;99.00;54.83;;;;;;;;;;5022254;28;20040;-46
2021/11/22 01:48:28;;;;;;;103.45;57.90;;;;;;;;;;5022155;28;20104;-46
2021/11/22 01:50:56;;;;;;;96.30;56.85;;;;;;;;;;5022048;28;20033;-46
2021/11/22 01:53:29;;;;;;;104.20;59.25;;;;;;;;;;5021936;28;20037;-46
2021/11/22 01:55:55;;;;;;;103.97;60.17;;;;;;;;;;5023662;28;20347;-46
2021/11/22 01:58:21;;;;;;;115.25;63.45;;;;;;;;;;5022125;28;20029;-47
2021/11/22 02:00:49;;;;;;;117.85;64.35;;;;;;;;;;5029542;28;20021;-47
2021/11/22 02:03:15;;;;;;;108.22;62.13;;;;;;;;;;5052940;28;20092;-47
2021/11/22 02:05:42;;;;;;;111.63;62.70;;;;;;;;;;5052866;28;20023;-47
2021/11/22 02:08:08;;;;;;;108.70;63.78;;;;;;;;;;5053064;28;20438;-46
2021/11/22 02:10:35;;;;;;;116.15;65.35;;;;;;;;;;5052765;28;20432;-47
2021/11/22 02:13:02;;;;;;;122.00;67.15;;;;;;;;;;5052693;28;20033;-46
2021/11/22 02:15:28;;;;;;;130.55;69.22;;;;;;;;;;5052859;28;20100;-46
2021/11/22 02:17:59;;;;;;;125.85;68.07;;;;;;;;;;5052734;28;20021;-48
2021/11/22 02:20:27;;;;;;;102.35;53.35;;;;;;;;;;5052950;28;20434;-47
2021/11/22 02:22:56;;;;;;;128.95;68.25;;;;;;;;;;5052836;28;20029;-47
2021/11/22 02:25:23;;;;;;;134.60;69.97;;;;;;;;;;5052745;28;20017;-47
2021/11/22 02:27:50;;;;;;;121.40;66.78;;;;;;;;;;5052511;28;20031;-46
2021/11/22 02:30:17;;;;;;;115.90;64.82;;;;;;;;;;5052682;28;20096;-46
2021/11/22 02:32:44;;;;;;;119.47;62.78;;;;;;;;;;5051459;28;20041;-46
2021/11/22 02:35:12;;;;;;;118.78;66.63;;;;;;;;;;5052666;28;20033;-47
2021/11/22 02:37:38;;;;;;;113.85;65.10;;;;;;;;;;5052592;28;20021;-47
2021/11/22 02:40:05;;;;;;;121.38;65.68;;;;;;;;;;5054843;28;20381;-47
2021/11/22 02:42:34;;;;;;;129.90;72.47;;;;;;;;;;5056109;28;20040;-45
2021/11/22 02:45:01;;;;;;;133.70;72.80;;;;;;;;;;5056130;28;20017;-47
2021/11/22 02:47:27;;;;;;;137.20;72.35;;;;;;;;;;5056059;28;20021;-46
2021/11/22 02:49:58;;;;;;;137.57;71.63;;;;;;;;;;5056170;28;20029;-47
2021/11/22 02:52:24;;;;;;;129.18;67.85;;;;;;;;;;5055865;28;20053;-46
2021/11/22 02:54:51;;;;;;;147.57;71.15;;;;;;;;;;5055767;28;20055;-46
2021/11/22 02:57:17;;;;;;;113.65;65.75;;;;;;;;;;5056148;28;20047;-47
2021/11/22 02:59:45;;;;;;;109.93;61.58;;;;;;;;;;5055782;28;20450;-46
2021/11/22 03:02:14;;;;;;;113.30;61.92;;;;;;;;;;5055751;28;20045;-47
2021/11/22 03:04:42;;;;;;;117.43;61.55;;;;;;;;;;5055884;28;20119;-48
2021/11/22 03:07:08;;;;;;;109.47;60.28;;;;;;;;;;5055922;28;20036;-45
2021/11/22 03:09:35;;;;;;;115.15;61.15;;;;;;;;;;5055588;28;20021;-49
2021/11/22 03:12:02;;;;;;;106.53;59.53;;;;;;;;;;5055804;28;20460;-46
2021/11/22 03:14:28;;;;;;;104.55;60.13;;;;;;;;;;5055522;28;20041;-48
2021/11/22 03:16:55;;;;;;;97.45;57.35;;;;;;;;;;5055701;28;20393;-47
2021/11/22 03:19:21;;;;;;;92.40;54.13;;;;;;;;;;5055455;28;20028;-46
2021/11/22 03:21:48;;;;;;;83.50;51.40;;;;;;;;;;5055400;28;20473;-46
2021/11/22 03:24:14;;;;;;;93.55;50.78;;;;;;;;;;5055289;28;20029;-45
2021/11/22 03:26:40;;;;;;;82.93;46.35;;;;;;;;;;5055345;28;20029;-46
2021/11/22 03:29:06;;;;;;;84.32;47.53;;;;;;;;;;5055315;28;20359;-47
2021/11/22 03:31:33;;;;;;;77.90;46.92;;;;;;;;;;5055302;28;20025;-47
2021/11/22 03:34:00;;;;;;;76.68;46.50;;;;;;;;;;5055164;28;20037;-47
2021/11/22 03:36:27;;;;;;;78.38;44.13;;;;;;;;;;5055153;28;20025;-46
2021/11/22 03:38:54;;;;;;;77.13;44.65;;;;;;;;;;5055131;28;20025;-46
2021/11/22 03:41:20;;;;;;;84.90;45.58;;;;;;;;;;5055027;28;20035;-46
2021/11/22 03:43:49;;;;;;;85.82;44.78;;;;;;;;;;5055185;28;20021;-47
2021/11/22 03:46:16;;;;;;;93.00;46.78;;;;;;;;;;5055033;28;20422;-48
2021/11/22 03:48:43;;;;;;;85.88;45.83;;;;;;;;;;5055122;28;20035;-47
2021/11/22 03:51:09;;;;;;;86.72;46.58;;;;;;;;;;5053706;28;20056;-47
2021/11/22 03:53:35;;;;;;;92.50;46.65;;;;;;;;;;5054764;28;20040;-46
2021/11/22 03:56:01;;;;;;;85.78;45.33;;;;;;;;;;5054683;28;20485;-45
2021/11/22 03:58:30;;;;;;;101.68;45.80;;;;;;;;;;5055015;28;20055;-47
2021/11/22 04:00:56;;;;;;;97.85;44.70;;;;;;;;;;5054926;28;20032;-46
2021/11/22 04:03:22;;;;;;;105.53;47.72;;;;;;;;;;5054808;28;20362;-45
2021/11/22 04:05:49;;;;;;;106.93;48.60;;;;;;;;;;5054921;28;20104;-47
2021/11/22 04:08:18;;;;;;;116.20;46.83;;;;;;;;;;5054720;28;20470;-45
2021/11/22 04:10:44;;;;;;;103.60;46.67;;;;;;;;;;5054226;28;20036;-46
2021/11/22 04:13:11;;;;;;;106.38;49.17;;;;;;;;;;5054371;28;20401;-47
2021/11/22 04:15:37;;;;;;;102.57;50.15;;;;;;;;;;5054519;28;20070;-46
2021/11/22 04:18:04;;;;;;;114.35;48.65;;;;;;;;;;5054634;28;20021;-46
2021/11/22 04:20:30;;;;;;;124.00;51.17;;;;;;;;;;5054200;28;20513;-47
2021/11/22 04:22:56;;;;;;;135.93;53.20;;;;;;;;;;5054227;28;20469;-45
2021/11/22 04:25:25;;;;;;;148.48;60.85;;;;;;;;;;5054061;28;20028;-47
2021/11/22 04:27:51;;;;;;;137.43;58.60;;;;;;;;;;5054207;28;20116;-46
2021/11/22 04:30:18;;;;;;;122.28;56.10;;;;;;;;;;5054292;28;20024;-47
2021/11/22 04:32:44;;;;;;;142.98;62.90;;;;;;;;;;5054260;28;20028;-46
2021/11/22 04:35:11;;;;;;;145.32;63.92;;;;;;;;;;5053888;28;20033;-47
2021/11/22 04:37:38;;;;;;;153.45;65.35;;;;;;;;;;5054322;28;20017;-46
2021/11/22 04:40:05;;;;;;;136.27;65.40;;;;;;;;;;5053796;28;20385;-46
2021/11/22 04:42:31;;;;;;;146.95;62.72;;;;;;;;;;5053882;28;20040;-47
2021/11/22 04:45:00;;;;;;;141.52;60.45;;;;;;;;;;5053714;28;20025;-47
2021/11/22 04:47:26;;;;;;;151.60;69.25;;;;;;;;;;5053562;28;20025;-45
2021/11/22 04:49:53;;;;;;;151.77;76.57;;;;;;;;;;5053685;28;20473;-48
2021/11/22 04:52:23;;;;;;;166.90;79.97;;;;;;;;;;5053425;28;20056;-47
2021/11/22 04:54:49;;;;;;;134.55;64.68;;;;;;;;;;5053405;28;20064;-48
2021/11/22 04:57:16;;;;;;;136.18;72.85;;;;;;;;;;5052316;28;20025;-50
2021/11/22 04:59:42;;;;;;;146.15;79.72;;;;;;;;;;5053533;28;20021;-49
2021/11/22 05:02:09;;;;;;;136.73;72.20;;;;;;;;;;5053297;28;20027;-49
2021/11/22 05:04:36;;;;;;;125.43;67.68;;;;;;;;;;5053571;28;20115;-51
2021/11/22 05:07:02;;;;;;;115.85;64.60;;;;;;;;;;5053432;28;20477;-52
2021/11/22 05:09:33;;;;;;;120.13;63.58;;;;;;;;;;5051905;28;20045;-49
2021/11/22 05:12:00;;;;;;;146.23;61.83;;;;;;;;;;5053410;28;20021;-50
2021/11/22 05:14:26;;;;;;;195.85;75.97;;;;;;;;;;5053397;28;20400;-49
2021/11/22 05:16:53;;;;;;;217.27;82.60;;;;;;;;;;5053491;28;20465;-51
2021/11/22 05:19:19;;;;;;;210.35;78.25;;;;;;;;;;5052235;28;20029;-48
2021/11/22 05:21:46;;;;;;;229.20;81.95;;;;;;;;;;5052736;28;20021;-51
2021/11/22 05:24:12;;;;;;;214.23;81.15;;;;;;;;;;5052790;28;20033;-49
2021/11/22 05:26:38;;;;;;;234.02;84.43;;;;;;;;;;5053193;28;20053;-49
2021/11/22 05:29:06;;;;;;;223.85;79.40;;;;;;;;;;5053246;28;20024;-49
2021/11/22 05:31:32;;;;;;;209.40;76.05;;;;;;;;;;5053619;28;20373;-50
2021/11/22 05:33:59;;;;;;;221.18;79.90;;;;;;;;;;5053125;28;20036;-48
2021/11/22 05:36:25;;;;;;;295.92;75.78;;;;;;;;;;5052997;28;20021;-50
2021/11/22 05:38:52;;;;;;;220.27;75.75;;;;;;;;;;5052992;28;20339;-47
2021/11/22 05:41:18;;;;;;;222.57;76.28;;;;;;;;;;5051598;28;20113;-47
2021/11/22 05:43:44;;;;;;;208.52;68.32;;;;;;;;;;5053082;28;20032;-47
2021/11/22 05:46:11;;;;;;;178.13;63.35;;;;;;;;;;5053159;28;20389;-47
2021/11/22 05:48:38;;;;;;;153.68;60.90;;;;;;;;;;5052902;28;20114;-47
2021/11/22 05:51:06;;;;;;;122.07;55.97;;;;;;;;;;5052964;28;20457;-47
2021/11/22 05:53:36;;;;;;;128.35;55.45;;;;;;;;;;5052862;28;20393;-48
2021/11/22 05:56:04;;;;;;;128.68;57.90;;;;;;;;;;5053122;28;20036;-48
2021/11/22 05:58:32;;;;;;;116.35;55.55;;;;;;;;;;5053275;28;20021;-49
2021/11/22 06:00:59;;;;;;;154.70;56.38;;;;;;;;;;5052719;28;20378;-48
2021/11/22 06:03:27;;;;;;;111.20;52.42;;;;;;;;;;5052753;28;20021;-49
2021/11/22 06:05:53;;;;;;;109.93;54.03;;;;;;;;;;5052911;28;20393;-48
2021/11/22 06:08:19;;;;;;;93.28;49.88;;;;;;;;;;5053262;28;20025;-48
2021/11/22 06:10:48;;;;;;;81.03;47.72;;;;;;;;;;5052783;28;20023;-49
2021/11/22 06:13:15;;;;;;;98.50;49.78;;;;;;;;;;5052632;28;20037;-48
2021/11/22 06:15:41;;;;;;;93.55;47.20;;;;;;;;;;5056361;28;20021;-48
2021/11/22 06:18:08;;;;;;;73.35;42.65;;;;;;;;;;5056796;28;20025;-50
2021/11/22 06:20:34;;;;;;;90.18;39.35;;;;;;;;;;5056830;28;20048;-49
2021/11/22 06:23:00;;;;;;;65.63;40.90;;;;;;;;;;5056706;28;20100;-48
2021/11/22 06:25:26;;;;;;;120.93;40.13;;;;;;;;;;5054990;28;20033;-48
2021/11/22 06:27:53;;;;;;;79.57;39.60;;;;;;;;;;5056503;28;20424;-49
2021/11/22 06:30:19;;;;;;;62.30;38.35;;;;;;;;;;5056391;28;20384;-50
2021/11/22 06:32:45;;;;;;;65.95;42.08;;;;;;;;;;5056367;28;20033;-47
2021/11/22 06:35:11;;;;;;;65.35;39.17;;;;;;;;;;5054798;28;20436;-48
2021/11/22 06:37:38;;;;;;;68.75;39.28;;;;;;;;;;5056175;28;20071;-47
2021/11/22 06:40:05;;;;;;;71.55;42.92;;;;;;;;;;5056165;28;20025;-47
2021/11/22 06:42:31;;;;;;;77.32;44.22;;;;;;;;;;5056336;28;20025;-51
2021/11/22 06:44:57;;;;;;;112.18;55.50;;;;;;;;;;5056177;28;20477;-56
2021/11/22 06:47:25;;;;;;;87.85;51.65;;;;;;;;;;5055993;28;20452;-51
2021/11/22 06:49:53;;;;;;;77.82;43.40;;;;;;;;;;5055971;28;20028;-51
2021/11/22 06:52:21;;;;;;;80.72;40.13;;;;;;;;;;5055672;28;20067;-56
2021/11/22 06:54:47;;;;;;;60.65;36.45;;;;;;;;;;5055948;28;20384;-52
2021/11/22 06:57:14;;;;;;;66.50;38.53;;;;;;;;;;5056102;28;20021;-51
2021/11/22 06:59:42;;;;;;;58.25;37.53;;;;;;;;;;5055815;28;20079;-51
2021/11/22 07:02:16;;;;;;;61.78;36.97;;;;;;;;;;5055935;28;20028;-61
2021/11/22 07:04:43;;;;;;;57.55;37.72;;;;;;;;;;5055764;28;20032;-50
2021/11/22 07:07:09;;;;;;;58.55;37.15;;;;;;;;;;5055759;28;20021;-50
2021/11/22 07:09:35;;;;;;;61.00;39.70;;;;;;;;;;5055530;28;20055;-51
2021/11/22 07:12:03;;;;;;;57.67;38.10;;;;;;;;;;5055537;28;20032;-50
2021/11/22 07:14:29;;;;;;;64.70;40.67;;;;;;;;;;5054200;28;20060;-51
2021/11/22 07:16:55;;;;;;;68.40;40.33;;;;;;;;;;5055515;28;20083;-51
2021/11/22 07:19:21;;;;;;;79.43;43.78;;;;;;;;;;5055472;28;20575;-51
2021/11/22 07:21:52;;;;;;;104.30;46.72;;;;;;;;;;5055239;28;20051;-51
2021/11/22 07:24:18;;;;;;;93.40;47.20;;;;;;;;;;5055426;28;20052;-54
2021/11/22 07:26:44;;;;;;;90.75;48.20;;;;;;;;;;5055425;28;20439;-57
2021/11/22 07:29:10;;;;;;;79.40;46.30;;;;;;;;;;5055344;28;20388;-53
2021/11/22 07:31:37;;;;;;;85.97;47.50;;;;;;;;;;5055355;28;20025;-51
2021/11/22 07:34:03;;;;;;;96.68;50.55;;;;;;;;;;5055110;28;20043;-58
2021/11/22 07:36:29;;;;;;;98.47;49.85;;;;;;;;;;5055080;28;20071;-51
2021/11/22 07:38:55;;;;;;;104.47;54.00;;;;;;;;;;5055061;28;20108;-61
2021/11/22 07:41:26;;;;;;;94.93;50.58;;;;;;;;;;5055013;28;20017;-51
2021/11/22 07:43:52;;;;;;;112.03;54.85;;;;;;;;;;5055111;28;20091;-50
2021/11/22 07:46:19;;;;;;;108.90;57.83;;;;;;;;;;5055016;28;20032;-50
2021/11/22 07:48:45;;;;;;;103.18;51.92;;;;;;;;;;5054913;28;20437;-51
2021/11/22 07:51:11;;;;;;;111.97;54.55;;;;;;;;;;5054528;28;20071;-50
2021/11/22 07:53:40;;;;;;;126.90;56.95;;;;;;;;;;5054866;28;20033;-50
2021/11/22 07:56:07;;;;;;;123.75;57.67;;;;;;;;;;5054763;28;20048;-50
2021/11/22 07:58:33;;;;;;;123.43;57.90;;;;;;;;;;5054793;28;20017;-52
2021/11/22 08:01:00;;;;;;;115.60;57.75;;;;;;;;;;5054757;28;20020;-50
2021/11/22 08:03:26;;;;;;;118.60;57.35;;;;;;;;;;5054736;28;20070;-61
2021/11/22 08:05:56;;;;;;;119.60;58.63;;;;;;;;;;5054958;28;20389;-51
2021/11/22 08:08:24;;;;;;;129.55;58.20;;;;;;;;;;5054550;28;20025;-51
2021/11/22 08:11:06;;;;;;;129.75;60.38;;;;;;;;;;5054402;28;20021;-50
2021/11/22 08:13:33;;;;;;;116.95;58.38;;;;;;;;;;5054457;28;20307;-50
2021/11/22 08:16:01;;;;;;;121.50;61.55;;;;;;;;;;5054404;28;20036;-50
2021/11/22 08:18:28;;;;;;;120.45;58.25;;;;;;;;;;5054432;28;20441;-51
2021/11/22 08:20:57;;;;;;;131.55;63.75;;;;;;;;;;5052968;28;20461;-50
2021/11/22 08:23:26;;;;;;;149.13;72.40;;;;;;;;;;5052918;28;20045;-52
2021/11/22 08:25:52;;;;;;;155.88;74.40;;;;;;;;;;5054329;28;20024;-50
2021/11/22 08:28:19;;;;;;;151.63;74.05;;;;;;;;;;5054139;28;20025;-50
2021/11/22 08:30:45;;;;;;;154.88;76.97;;;;;;;;;;5054168;28;20025;-51
2021/11/22 08:33:14;;;;;;;180.30;84.97;;;;;;;;;;5053837;28;20163;-51
2021/11/22 08:35:41;;;;;;;179.57;89.55;;;;;;;;;;5052815;28;20024;-54
2021/11/22 08:38:07;;;;;;;164.05;80.05;;;;;;;;;;5053541;28;20029;-50
2021/11/22 08:40:34;;;;;;;161.98;77.35;;;;;;;;;;5054062;28;20108;-50
2021/11/22 08:43:01;;;;;;;169.98;82.80;;;;;;;;;;5053840;28;20025;-50
2021/11/22 08:45:27;;;;;;;160.30;77.32;;;;;;;;;;5053828;28;20397;-51
2021/11/22 08:47:54;;;;;;;162.85;80.45;;;;;;;;;;5053737;28;20025;-51
2021/11/22 08:50:21;;;;;;;154.77;73.97;;;;;;;;;;5053727;28;20060;-51
2021/11/22 08:52:48;;;;;;;158.20;72.38;;;;;;;;;;5053505;28;20463;-51
2021/11/22 08:55:15;;;;;;;172.73;77.15;;;;;;;;;;5053804;28;20044;-54
2021/11/22 08:57:42;;;;;;;204.75;87.30;;;;;;;;;;5053732;28;20039;-51
2021/11/22 09:00:13;;;;;;;205.35;83.28;;;;;;;;;;5053766;28;20099;-52
2021/11/22 09:02:39;;;;;;;243.82;97.13;;;;;;;;;;5053584;28;20047;-59
2021/11/22 09:05:06;;;;;;;214.50;86.25;;;;;;;;;;5053766;28;20358;-51
2021/11/22 09:07:32;;;;;;;239.18;91.25;;;;;;;;;;5053658;28;20029;-51
2021/11/22 09:09:58;;;;;;;201.50;79.32;;;;;;;;;;5053447;28;20091;-55
2021/11/22 09:12:24;;;;;;;194.13;75.55;;;;;;;;;;5053664;28;20569;-60
2021/11/22 09:14:51;;;;;;;168.20;69.88;;;;;;;;;;5053474;28;20043;-50
2021/11/22 09:17:18;;;;;;;158.73;71.82;;;;;;;;;;5053417;28;20018;-50
2021/11/22 09:19:46;;;;;;;155.25;70.30;;;;;;;;;;5053344;28;20373;-50
2021/11/22 09:22:15;;;;;;;126.93;62.05;;;;;;;;;;5053259;28;20025;-50
2021/11/22 09:24:47;;;;;;;108.85;58.80;;;;;;;;;;5053323;28;20021;-54
2021/11/22 09:27:13;;;;;;;102.13;58.10;;;;;;;;;;5053073;28;20040;-54
2021/11/22 09:29:39;;;;;;;98.05;55.50;;;;;;;;;;5053070;28;20060;-51
2021/11/22 09:32:06;;;;;;;88.32;51.38;;;;;;;;;;5051921;28;20100;-51
2021/11/22 09:34:32;;;;;;;89.53;50.42;;;;;;;;;;5052195;28;20037;-52
2021/11/22 09:37:02;;;;;;;89.07;50.55;;;;;;;;;;5052946;28;20469;-54
2021/11/22 09:39:28;;;;;;;83.40;46.78;;;;;;;;;;5052989;28;20604;-56
2021/11/22 09:41:54;;;;;;;75.00;45.83;;;;;;;;;;5053010;28;20108;-49
2021/11/22 09:44:21;;;;;;;79.50;46.53;;;;;;;;;;5052955;28;20373;-49
2021/11/22 09:46:48;;;;;;;76.78;44.38;;;;;;;;;;5053094;28;20039;-54
2021/11/22 09:49:17;;;;;;;77.68;45.58;;;;;;;;;;5054453;28;20381;-51
2021/11/22 09:51:43;;;;;;;80.00;46.53;;;;;;;;;;5057205;28;20056;-53
2021/11/22 09:54:10;;;;;;;96.13;50.38;;;;;;;;;;5057070;28;20088;-51
2021/11/22 09:56:37;;;;;;;89.75;49.92;;;;;;;;;;5056915;28;20036;-51
2021/11/22 09:59:04;;;;;;;88.47;48.92;;;;;;;;;;5057258;28;20033;-52
2021/11/22 10:01:35;;;;;;;90.55;47.97;;;;;;;;;;5056811;28;20373;-51
2021/11/22 10:04:08;;;;;;;101.65;52.67;;;;;;;;;;5057229;28;20025;-51
2021/11/22 10:06:47;;;;;;;99.57;51.42;;;;;;;;;;5056856;28;20029;-54
2021/11/22 10:09:39;;;;;;;101.57;51.58;;;;;;;;;;5056098;28;20032;-51
2021/11/22 10:12:08;;;;;;;104.75;52.50;;;;;;;;;;5056579;28;20112;-51
2021/11/22 10:14:37;;;;;;;114.22;53.58;;;;;;;;;;5056886;28;20435;-57
2021/11/22 10:17:17;;;;;;;124.28;57.00;;;;;;;;;;5056657;28;20025;-51
2021/11/22 10:19:44;;;;;;;103.78;52.35;;;;;;;;;;5056847;28;20481;-60
2021/11/22 10:22:17;;;;;;;98.32;51.38;;;;;;;;;;5056483;28;20040;-50
2021/11/22 10:24:43;;;;;;;90.05;48.80;;;;;;;;;;5056437;28;20033;-52
2021/11/22 10:27:09;;;;;;;95.47;51.83;;;;;;;;;;5056476;28;20087;-50
2021/11/22 10:29:35;;;;;;;85.78;50.05;;;;;;;;;;5056494;28;20021;-51
2021/11/22 10:32:03;;;;;;;86.38;48.58;;;;;;;;;;5056513;28;20037;-51
2021/11/22 10:34:35;;;;;;;80.15;46.50;;;;;;;;;;5056342;28;20037;-50
2021/11/22 10:37:08;;;;;;;;;;;;;;;;;;5057380;28;20041;-50
2021/11/22 10:39:35;;;;;;;84.00;45.83;;;;;;;;;;5056358;28;20357;-51
2021/11/22 10:42:01;;;;;;;79.85;46.10;;;;;;;;;;5056339;28;20029;-50
2021/11/22 10:44:28;;;;;;;74.03;43.08;;;;;;;;;;5056207;28;20075;-50
2021/11/22 10:46:58;;;;;;;82.95;48.83;;;;;;;;;;5056642;28;20108;-50
2021/11/22 10:49:40;;;;;;;82.65;45.00;;;;;;;;;;5056202;28;20385;-50
2021/11/22 10:52:11;;;;;;;72.28;43.15;;;;;;;;;;5056077;28;20630;-50
2021/11/22 10:54:51;;;;;;;74.63;45.67;;;;;;;;;;5056060;28;20072;-50
2021/11/22 10:57:17;;;;;;;80.35;47.53;;;;;;;;;;5055860;28;20059;-51
2021/11/22 10:59:44;;;;;;;75.28;44.97;;;;;;;;;;5055527;28;20029;-50
2021/11/22 11:02:10;;;;;;;78.72;44.17;;;;;;;;;;5055938;28;20017;-51
2021/11/22 11:04:42;;;;;;;75.32;45.03;;;;;;;;;;5055696;28;20043;-50
2021/11/22 11:07:09;;;;;;;75.03;45.53;;;;;;;;;;5056181;28;20067;-50
2021/11/22 11:09:51;;;;;;;75.32;43.47;;;;;;;;;;5055877;28;20025;-53
2021/11/22 11:12:19;;;;;;;74.30;43.38;;;;;;;;;;5054671;28;20033;-50
2021/11/22 11:14:49;;;;;;;75.03;44.42;;;;;;;;;;5055608;28;20119;-50
2021/11/22 11:17:25;;;;;;;72.25;43.70;;;;;;;;;;5055508;28;20479;-50
2021/11/22 11:19:54;;;;;;;84.90;45.22;;;;;;;;;;5055416;28;20122;-57
2021/11/22 11:22:23;;;;;;;74.07;43.72;;;;;;;;;;5055559;28;20029;-50
2021/11/22 11:24:49;;;;;;;71.93;44.03;;;;;;;;;;5055458;28;20017;-51
2021/11/22 11:27:15;;;;;;;77.38;46.88;;;;;;;;;;5055574;28;20025;-50
2021/11/22 11:29:44;;;;;;;75.57;43.95;;;;;;;;;;5055308;28;20017;-49
2021/11/22 11:32:11;;;;;;;72.72;43.85;;;;;;;;;;5055305;28;20024;-49
2021/11/22 11:34:42;;;;;;;77.22;44.28;;;;;;;;;;5055192;28;20086;-52
2021/11/22 11:37:11;;;;;;;76.07;44.40;;;;;;;;;;5055210;28;20025;-49
2021/11/22 11:39:56;;;;;;;88.28;49.35;;;;;;;;;;5055006;28;20035;-49
2021/11/22 11:42:38;;;;;;;92.90;54.13;;;;;;;;;;5054751;28;20025;-49
2021/11/22 11:45:19;;;;;;;86.05;48.72;;;;;;;;;;5055138;28;20525;-49
2021/11/22 11:47:51;;;;;;;87.70;53.65;;;;;;;;;;5055049;28;20029;-50
2021/11/22 11:50:28;;;;;;;101.57;58.13;;;;;;;;;;5055133;28;20029;-50
2021/11/22 11:53:08;;;;;;;99.65;56.00;;;;;;;;;;5054720;28;20056;-50
2021/11/22 11:55:35;;;;;;;90.93;52.70;;;;;;;;;;5054662;28;20112;-49
2021/11/22 11:58:14;;;;;;;95.05;51.28;;;;;;;;;;5054908;28;20496;-50
2021/11/22 12:00:51;;;;;;;87.07;50.40;;;;;;;;;;5053631;28;20370;-50
2021/11/22 12:03:18;;;;;;;76.22;43.50;;;;;;;;;;5054616;28;20029;-50
2021/11/22 12:05:47;;;;;;;78.70;47.10;;;;;;;;;;5054532;28;20473;-50
2021/11/22 12:08:23;;;;;;;80.97;47.58;;;;;;;;;;5053328;28;20397;-50
2021/11/22 12:10:49;;;;;;;82.65;47.30;;;;;;;;;;5054665;28;20021;-49
2021/11/22 12:13:16;;;;;;;88.88;48.00;;;;;;;;;;5053799;28;20029;-49
2021/11/22 12:15:45;;;;;;;89.03;47.40;;;;;;;;;;5054423;28;20129;-49
2021/11/22 12:18:12;;;;;;;87.47;47.08;;;;;;;;;;5054245;28;20029;-49
2021/11/22 12:20:43;;;;;;;90.57;49.75;;;;;;;;;;5054356;28;20106;-49
2021/11/22 12:23:19;;;;;;;84.78;47.60;;;;;;;;;;5054446;28;20037;-49
2021/11/22 12:25:49;;;;;;;89.07;47.22;;;;;;;;;;5052961;28;20455;-49
2021/11/22 12:28:35;;;;;;;89.68;48.08;;;;;;;;;;5054160;28;20163;-50
2021/11/22 12:31:09;;;;;;;95.05;48.30;;;;;;;;;;5054022;28;20131;-54
2021/11/22 12:33:38;;;;;;;100.38;49.92;;;;;;;;;;5054217;28;20027;-53
2021/11/22 12:36:04;;;;;;;83.88;47.10;;;;;;;;;;5054366;28;20098;-49
2021/11/22 12:38:35;;;;;;;109.88;51.30;;;;;;;;;;5054021;28;20454;-49
2021/11/22 12:41:06;;;;;;;146.38;71.93;;;;;;;;;;5054394;28;20368;-50
2021/11/22 12:43:41;;;;;;;132.00;64.72;;;;;;;;;;5054021;28;20045;-50
2021/11/22 12:46:08;;;;;;;125.38;60.45;;;;;;;;;;5053757;28;20025;-54
2021/11/22 12:48:35;;;;;;;156.10;70.60;;;;;;;;;;5053801;28;20557;-52
2021/11/22 12:51:04;;;;;;;156.70;70.07;;;;;;;;;;5053921;28;20025;-50
2021/11/22 12:53:31;;;;;;;133.23;61.80;;;;;;;;;;5053799;28;20035;-50
2021/11/22 12:55:57;;;;;;;144.60;63.42;;;;;;;;;;5053404;28;20044;-56
2021/11/22 12:58:27;;;;;;;115.65;55.28;;;;;;;;;;5053642;28;20028;-55
2021/11/22 13:00:55;;;;;;;100.07;50.10;;;;;;;;;;5053642;28;20052;-58
2021/11/22 13:03:22;;;;;;;88.38;46.05;;;;;;;;;;5053633;28;20029;-50
2021/11/22 13:05:53;;;;;;;90.25;45.15;;;;;;;;;;5053675;28;20027;-50
2021/11/22 13:08:19;;;;;;;99.72;50.17;;;;;;;;;;5053724;28;20020;-50
2021/11/22 13:10:52;;;;;;;93.88;47.95;;;;;;;;;;5053493;28;20025;-51
2021/11/22 13:13:29;;;;;;;98.10;49.63;;;;;;;;;;5053928;28;20052;-50
2021/11/22 13:15:59;;;;;;;100.93;53.38;;;;;;;;;;5053455;28;20091;-50
2021/11/22 13:18:27;;;;;;;103.17;51.13;;;;;;;;;;5053544;28;20017;-49
2021/11/22 13:20:55;;;;;;;100.65;50.95;;;;;;;;;;5053614;28;20025;-49
2021/11/22 13:23:28;;;;;;;95.45;49.67;;;;;;;;;;5052893;28;20481;-49
2021/11/22 13:25:55;;;;;;;94.55;49.95;;;;;;;;;;5053452;28;20104;-50
2021/11/22 13:28:25;;;;;;;98.95;49.70;;;;;;;;;;5053446;28;20108;-52
2021/11/22 13:30:51;;;;;;;93.75;46.42;;;;;;;;;;5053287;28;20021;-50
2021/11/22 13:33:17;;;;;;;101.07;49.60;;;;;;;;;;5053322;28;20438;-50
2021/11/22 13:35:44;;;;;;;102.70;52.63;;;;;;;;;;5053069;28;20125;-49
2021/11/22 13:38:14;;;;;;;93.43;49.33;;;;;;;;;;5053307;28;20104;-50
2021/11/22 13:40:42;;;;;;;94.07;48.72;;;;;;;;;;5053050;28;20021;-50
2021/11/22 13:43:09;;;;;;;99.22;50.17;;;;;;;;;;5053098;28;20021;-49
2021/11/22 13:45:38;;;;;;;97.10;47.85;;;;;;;;;;5053074;28;20358;-49
2021/11/22 13:48:04;;;;;;;112.57;52.70;;;;;;;;;;5052922;28;20021;-50
2021/11/22 13:50:40;;;;;;;104.30;51.58;;;;;;;;;;5053036;28;20377;-50
2021/11/22 13:53:06;;;;;;;101.22;50.90;;;;;;;;;;5052955;28;20509;-49
2021/11/22 13:55:33;;;;;;;108.22;49.92;;;;;;;;;;5052988;28;20075;-50
2021/11/22 13:58:16;;;;;;;108.60;48.92;;;;;;;;;;5052602;28;20021;-49
2021/11/22 14:00:59;;;;;;;105.95;51.38;;;;;;;;;;5052940;28;20025;-49
2021/11/22 14:03:28;;;;;;;100.43;49.42;;;;;;;;;;5052791;28;20028;-55
2021/11/22 14:05:57;;;;;;;121.72;51.63;;;;;;;;;;5052798;28;20436;-49
2021/11/22 14:08:26;;;;;;;115.95;53.58;;;;;;;;;;5052678;28;20029;-49
2021/11/22 14:10:53;;;;;;;112.57;55.47;;;;;;;;;;5051846;28;20029;-50
2021/11/22 14:13:20;;;;;;;106.55;50.30;;;;;;;;;;5052147;28;20032;-50
2021/11/22 14:15:48;;;;;;;106.38;50.47;;;;;;;;;;5052006;28;20028;-52